sensor_id;sensor_type;location;lat;lon;timestamp;pressure;altitude;pressure_sealevel;temperature;humidity
48644;BME280;34928;37.302;-121.984;2023-04-06T00:06:08;101480.0;;;27.52;19.29
48644;BME280;34928;37.302;-121.984;2023-04-06T00:16:12;101479.0;;;27.53;19.25
48644;BME280;34928;37.302;-121.984;2023-04-06T00:26:17;101478.0;;;27.49;19.29
48644;BME280;34928;37.302;-121.984;2023-04-06T00:36:22;101477.0;;;27.51;19.35
48644;BME280;34928;37.302;-121.984;2023-04-06T00:46:28;101479.0;;;27.55;19.36
48644;BME280;34928;37.302;-121.984;2023-04-06T00:56:32;101475.0;;;27.55;19.42
48644;BME280;34928;37.302;-121.984;2023-04-06T01:06:42;101471.0;;;27.61;19.44
48644;BME280;34928;37.302;-121.984;2023-04-06T01:16:47;101473.0;;;27.61;19.39
48644;BME280;34928;37.302;-121.984;2023-04-06T01:26:52;101473.0;;;27.87;19.33
48644;BME280;34928;37.302;-121.984;2023-04-06T01:36:57;101471.0;;;27.69;19.45
48644;BME280;34928;37.302;-121.984;2023-04-06T01:47:02;101462.0;;;28.02;19.36
48644;BME280;34928;37.302;-121.984;2023-04-06T01:57:07;101459.0;;;27.88;19.20
48644;BME280;34928;37.302;-121.984;2023-04-06T02:07:12;101461.0;;;27.68;19.32
48644;BME280;34928;37.302;-121.984;2023-04-06T02:17:17;101464.0;;;27.75;19.53
48644;BME280;34928;37.302;-121.984;2023-04-06T02:27:27;101464.0;;;27.74;19.57
48644;BME280;34928;37.302;-121.984;2023-04-06T02:37:32;101472.0;;;27.57;19.68
48644;BME280;34928;37.302;-121.984;2023-04-06T02:47:37;101486.0;;;27.96;19.99
48644;BME280;34928;37.302;-121.984;2023-04-06T02:57:42;101485.0;;;27.86;19.80
48644;BME280;34928;37.302;-121.984;2023-04-06T03:07:48;101489.0;;;28.08;19.86
48644;BME280;34928;37.302;-121.984;2023-04-06T03:17:52;101501.0;;;27.95;19.83
48644;BME280;34928;37.302;-121.984;2023-04-06T03:27:57;101513.0;;;27.98;19.80
48644;BME280;34928;37.302;-121.984;2023-04-06T03:38:02;101515.0;;;27.63;19.77
48644;BME280;34928;37.302;-121.984;2023-04-06T03:48:07;101521.0;;;28.06;19.68
48644;BME280;34928;37.302;-121.984;2023-04-06T03:58:12;101524.0;;;27.51;19.80
48644;BME280;34928;37.302;-121.984;2023-04-06T04:08:18;101535.0;;;28.16;19.68
48644;BME280;34928;37.302;-121.984;2023-04-06T04:18:23;101541.0;;;27.90;19.75
48644;BME280;34928;37.302;-121.984;2023-04-06T04:28:28;101550.0;;;27.02;20.38
48644;BME280;34928;37.302;-121.984;2023-04-06T04:38:33;101546.0;;;27.98;19.70
48644;BME280;34928;37.302;-121.984;2023-04-06T04:48:38;101556.0;;;28.12;19.86
48644;BME280;34928;37.302;-121.984;2023-04-06T04:58:42;101571.0;;;27.56;20.33
48644;BME280;34928;37.302;-121.984;2023-04-06T05:08:47;101558.0;;;27.73;20.59
48644;BME280;34928;37.302;-121.984;2023-04-06T05:18:52;101570.0;;;27.98;20.64
48644;BME280;34928;37.302;-121.984;2023-04-06T05:28:57;101570.0;;;27.83;20.61
48644;BME280;34928;37.302;-121.984;2023-04-06T05:39:02;101586.0;;;28.16;20.44
48644;BME280;34928;37.302;-121.984;2023-04-06T05:49:07;101600.0;;;27.76;20.51
48644;BME280;34928;37.302;-121.984;2023-04-06T05:59:12;101589.0;;;27.84;20.56
48644;BME280;34928;37.302;-121.984;2023-04-06T06:09:17;101578.0;;;27.32;20.49
48644;BME280;34928;37.302;-121.984;2023-04-06T06:19:22;101572.0;;;27.08;20.72
48644;BME280;34928;37.302;-121.984;2023-04-06T06:29:27;101580.0;;;27.47;20.54
48644;BME280;34928;37.302;-121.984;2023-04-06T06:39:32;101578.0;;;27.13;20.81
48644;BME280;34928;37.302;-121.984;2023-04-06T06:49:37;101580.0;;;27.40;20.93
48644;BME280;34928;37.302;-121.984;2023-04-06T06:59:43;101594.0;;;27.38;21.58
48644;BME280;34928;37.302;-121.984;2023-04-06T07:09:47;101594.0;;;26.99;21.72
48644;BME280;34928;37.302;-121.984;2023-04-06T07:19:52;101583.0;;;26.94;21.54
48644;BME280;34928;37.302;-121.984;2023-04-06T07:29:57;101570.0;;;26.92;21.38
48644;BME280;34928;37.302;-121.984;2023-04-06T07:40:02;101561.0;;;27.13;21.11
48644;BME280;34928;37.302;-121.984;2023-04-06T07:50:09;101551.0;;;26.92;21.08
48644;BME280;34928;37.302;-121.984;2023-04-06T08:00:14;101545.0;;;26.87;21.00
48644;BME280;34928;37.302;-121.984;2023-04-06T08:10:17;101543.0;;;25.89;20.72
48644;BME280;34928;37.302;-121.984;2023-04-06T08:20:23;101547.0;;;27.12;20.44
48644;BME280;34928;37.302;-121.984;2023-04-06T08:30:27;101546.0;;;26.85;20.51
48644;BME280;34928;37.302;-121.984;2023-04-06T08:40:37;101544.0;;;26.44;20.76
48644;BME280;34928;37.302;-121.984;2023-04-06T08:50:43;101543.0;;;26.97;20.40
48644;BME280;34928;37.302;-121.984;2023-04-06T09:00:47;101538.0;;;26.40;20.17
48644;BME280;34928;37.302;-121.984;2023-04-06T09:10:53;101540.0;;;26.92;20.27
48644;BME280;34928;37.302;-121.984;2023-04-06T09:21:00;101533.0;;;27.13;20.22
48644;BME280;34928;37.302;-121.984;2023-04-06T09:31:07;101525.0;;;26.67;20.26
48644;BME280;34928;37.302;-121.984;2023-04-06T09:41:22;101523.0;;;27.00;20.20
48644;BME280;34928;37.302;-121.984;2023-04-06T09:51:30;101519.0;;;26.48;20.25
48644;BME280;34928;37.302;-121.984;2023-04-06T10:01:34;101526.0;;;26.85;20.05
48644;BME280;34928;37.302;-121.984;2023-04-06T10:11:44;101530.0;;;26.10;19.92
48644;BME280;34928;37.302;-121.984;2023-04-06T10:21:55;101541.0;;;27.10;20.00
48644;BME280;34928;37.302;-121.984;2023-04-06T10:32:02;101525.0;;;25.93;19.99
48644;BME280;34928;37.302;-121.984;2023-04-06T10:42:07;101501.0;;;26.92;20.06
48644;BME280;34928;37.302;-121.984;2023-04-06T10:52:13;101491.0;;;26.22;19.92
48644;BME280;34928;37.302;-121.984;2023-04-06T11:02:21;101468.0;;;26.79;19.86
48644;BME280;34928;37.302;-121.984;2023-04-06T11:12:29;101445.0;;;25.95;19.93
48644;BME280;34928;37.302;-121.984;2023-04-06T11:22:32;101419.0;;;26.81;19.83
48644;BME280;34928;37.302;-121.984;2023-04-06T11:32:40;101424.0;;;26.13;19.75
48644;BME280;34928;37.302;-121.984;2023-04-06T11:42:53;101403.0;;;26.96;19.87
48644;BME280;34928;37.302;-121.984;2023-04-06T11:53:01;101393.0;;;26.18;19.82
48644;BME280;34928;37.302;-121.984;2023-04-06T12:03:07;101396.0;;;26.53;19.89
48644;BME280;34928;37.302;-121.984;2023-04-06T12:13:12;101399.0;;;26.19;19.81
48644;BME280;34928;37.302;-121.984;2023-04-06T12:23:18;101404.0;;;26.73;19.75
48644;BME280;34928;37.302;-121.984;2023-04-06T12:33:22;101405.0;;;26.09;19.91
48644;BME280;34928;37.302;-121.984;2023-04-06T12:43:27;101412.0;;;26.72;19.74
48644;BME280;34928;37.302;-121.984;2023-04-06T12:53:33;101404.0;;;26.08;19.80
48644;BME280;34928;37.302;-121.984;2023-04-06T13:03:37;101405.0;;;26.34;19.70
48644;BME280;34928;37.302;-121.984;2023-04-06T13:13:42;101414.0;;;25.72;19.77
48644;BME280;34928;37.302;-121.984;2023-04-06T13:23:47;101419.0;;;26.57;19.73
48644;BME280;34928;37.302;-121.984;2023-04-06T13:33:52;101435.0;;;26.17;19.64
48644;BME280;34928;37.302;-121.984;2023-04-06T13:43:57;101459.0;;;26.58;19.61
48644;BME280;34928;37.302;-121.984;2023-04-06T13:54:03;101481.0;;;25.81;19.65
48644;BME280;34928;37.302;-121.984;2023-04-06T14:04:07;101490.0;;;26.24;19.59
48644;BME280;34928;37.302;-121.984;2023-04-06T14:14:12;101496.0;;;26.67;19.46
48644;BME280;34928;37.302;-121.984;2023-04-06T14:24:20;101510.0;;;26.12;19.56
48644;BME280;34928;37.302;-121.984;2023-04-06T14:34:22;101523.0;;;26.74;19.66
48644;BME280;34928;37.302;-121.984;2023-04-06T14:44:27;101529.0;;;27.21;20.15
48644;BME280;34928;37.302;-121.984;2023-04-06T14:54:33;101528.0;;;25.93;18.97
48644;BME280;34928;37.302;-121.984;2023-04-06T15:04:39;101508.0;;;26.29;19.56
48644;BME280;34928;37.302;-121.984;2023-04-06T15:14:42;101489.0;;;26.44;19.55
48644;BME280;34928;37.302;-121.984;2023-04-06T15:24:48;101474.0;;;26.16;19.64
48644;BME280;34928;37.302;-121.984;2023-04-06T15:34:53;101469.0;;;26.10;19.68
48644;BME280;34928;37.302;-121.984;2023-04-06T15:45:03;101476.0;;;25.96;19.80
48644;BME280;34928;37.302;-121.984;2023-04-06T15:55:08;101476.0;;;26.17;19.81
48644;BME280;34928;37.302;-121.984;2023-04-06T16:05:12;101468.0;;;26.35;19.87
48644;BME280;34928;37.302;-121.984;2023-04-06T16:15:17;101474.0;;;26.19;19.83
48644;BME280;34928;37.302;-121.984;2023-04-06T16:25:22;101458.0;;;26.41;19.81
48644;BME280;34928;37.302;-121.984;2023-04-06T16:35:27;101451.0;;;26.26;19.96
48644;BME280;34928;37.302;-121.984;2023-04-06T16:45:33;101448.0;;;25.82;19.92
48644;BME280;34928;37.302;-121.984;2023-04-06T16:55:38;101445.0;;;25.78;19.96
48644;BME280;34928;37.302;-121.984;2023-04-06T17:05:43;101444.0;;;25.83;19.88
48644;BME280;34928;37.302;-121.984;2023-04-06T17:15:47;101449.0;;;26.21;19.85
48644;BME280;34928;37.302;-121.984;2023-04-06T17:25:52;101438.0;;;25.65;19.54
48644;BME280;34928;37.302;-121.984;2023-04-06T17:35:57;101422.0;;;25.91;19.75
48644;BME280;34928;37.302;-121.984;2023-04-06T17:46:03;101416.0;;;25.69;20.04
48644;BME280;34928;37.302;-121.984;2023-04-06T17:56:07;101393.0;;;25.73;19.90
48644;BME280;34928;37.302;-121.984;2023-04-06T18:06:13;101367.0;;;25.91;19.83
48644;BME280;34928;37.302;-121.984;2023-04-06T18:16:17;101363.0;;;25.69;19.95
48644;BME280;34928;37.302;-121.984;2023-04-06T18:26:24;101343.0;;;26.03;19.93
48644;BME280;34928;37.302;-121.984;2023-04-06T18:36:27;101307.0;;;26.29;19.76
48644;BME280;34928;37.302;-121.984;2023-04-06T18:46:33;101299.0;;;26.14;19.60
48644;BME280;34928;37.302;-121.984;2023-04-06T18:56:38;101297.0;;;26.58;19.72
48644;BME280;34928;37.302;-121.984;2023-04-06T19:06:42;101297.0;;;26.43;19.86
48644;BME280;34928;37.302;-121.984;2023-04-06T19:16:47;101285.0;;;26.63;19.89
48644;BME280;34928;37.302;-121.984;2023-04-06T19:26:53;101274.0;;;26.50;19.91
48644;BME280;34928;37.302;-121.984;2023-04-06T19:36:57;101255.0;;;26.88;19.76
48644;BME280;34928;37.302;-121.984;2023-04-06T19:47:02;101247.0;;;26.92;19.85
48644;BME280;34928;37.302;-121.984;2023-04-06T19:57:07;101225.0;;;26.57;19.25
48644;BME280;34928;37.302;-121.984;2023-04-06T20:07:12;101212.0;;;26.48;18.85
48644;BME280;34928;37.302;-121.984;2023-04-06T20:17:17;101194.0;;;26.76;18.84
48644;BME280;34928;37.302;-121.984;2023-04-06T20:27:23;101189.0;;;27.18;19.36
48644;BME280;34928;37.302;-121.984;2023-04-06T20:37:27;101183.0;;;27.22;19.20
48644;BME280;34928;37.302;-121.984;2023-04-06T20:47:34;101173.0;;;27.56;19.24
48644;BME280;34928;37.302;-121.984;2023-04-06T20:57:37;101163.0;;;27.40;19.32
48644;BME280;34928;37.302;-121.984;2023-04-06T21:07:42;101152.0;;;27.62;19.42
48644;BME280;34928;37.302;-121.984;2023-04-06T21:17:48;101148.0;;;27.58;19.65
48644;BME280;34928;37.302;-121.984;2023-04-06T21:27:52;101143.0;;;27.47;19.69
48644;BME280;34928;37.302;-121.984;2023-04-06T21:37:58;101139.0;;;27.44;19.82
48644;BME280;34928;37.302;-121.984;2023-04-06T21:48:03;101145.0;;;27.53;19.74
48644;BME280;34928;37.302;-121.984;2023-04-06T21:58:07;101132.0;;;27.61;19.76
48644;BME280;34928;37.302;-121.984;2023-04-06T22:08:12;101120.0;;;27.89;19.78
48644;BME280;34928;37.302;-121.984;2023-04-06T22:18:17;101124.0;;;27.40;19.87
48644;BME280;34928;37.302;-121.984;2023-04-06T22:28:22;101125.0;;;27.35;20.50
48644;BME280;34928;37.302;-121.984;2023-04-06T22:38:27;101115.0;;;27.11;20.63
48644;BME280;34928;37.302;-121.984;2023-04-06T22:48:32;101105.0;;;27.07;20.65
48644;BME280;34928;37.302;-121.984;2023-04-06T22:58:38;101084.0;;;27.62;20.51
48644;BME280;34928;37.302;-121.984;2023-04-06T23:08:42;101077.0;;;27.87;20.30
48644;BME280;34928;37.302;-121.984;2023-04-06T23:18:47;101075.0;;;28.22;20.31
48644;BME280;34928;37.302;-121.984;2023-04-06T23:28:52;101065.0;;;28.24;20.31
48644;BME280;34928;37.302;-121.984;2023-04-06T23:38:57;101074.0;;;28.11;20.28
48644;BME280;34928;37.302;-121.984;2023-04-06T23:49:02;101062.0;;;27.80;20.15
48644;BME280;34928;37.302;-121.984;2023-04-06T23:59:07;101062.0;;;27.86;20.16
